Time;durP1;ratioP1;P1;durP2;ratioP2;P2;SDS_P1;SDS_P2;PMS_P1;PMS_P2;Temp;Humidity;BMP_temperature;BMP_pressure;BME280_temperature;BME280_humidity;BME280_pressure;Samples;Min_cycle;Max_cycle;Signal;HPM_P1;HPM_P2
2022/04/30 00:00:51;;;;;;;10.50;6.13;;;;;;;11.00;48.83;93114.88;4825872;29;20035;-89
2022/04/30 00:07:02;;;;;;;;;;;;;;;;;;;;;
2022/04/30 00:09:38;;;;;;;10.82;5.63;;;;;;;11.06;48.97;93112.25;4822938;29;20121;-88
2022/04/30 00:12:39;;;;;;;;;;;;;;;;;;;;;
2022/04/30 00:15:25;;;;;;;17.58;6.15;;;;;;;11.18;49.70;93131.00;4811449;29;20034;-88
2022/04/30 00:18:03;;;;;;;12.00;5.68;;;;;;;11.31;50.96;93151.34;4784273;29;20046;-89
2022/04/30 00:20:38;;;;;;;13.27;5.50;;;;;;;11.15;51.29;93118.47;4797309;29;20046;-88
2022/04/30 00:23:30;;;;;;;12.60;6.57;;;;;;;11.27;51.11;93129.34;4799441;29;20047;-88
2022/04/30 00:26:07;;;;;;;10.88;6.65;;;;;;;11.17;50.55;93092.75;4783878;29;20771;-87
2022/04/30 00:28:46;;;;;;;11.70;6.40;;;;;;;11.23;50.77;93112.63;4800277;29;20062;-88
2022/04/30 00:31:53;;;;;;;;;;;;;;;;;;;;;
2022/04/30 00:34:29;;;;;;;12.18;6.00;;;;;;;11.18;50.57;93112.66;4811213;29;20050;-88
2022/04/30 00:37:18;;;;;;;11.60;5.97;;;;;;;10.94;50.71;93079.31;4794939;29;20046;-88
2022/04/30 00:40:23;;;;;;;13.85;5.90;;;;;;;11.12;51.00;93095.41;4793246;29;20074;-88
2022/04/30 00:43:03;;;;;;;;;;;;;;;;;;;;;
2022/04/30 00:46:00;;;;;;;10.30;6.30;;;;;;;11.05;51.64;93098.34;4826290;29;20118;-88
2022/04/30 00:48:36;;;;;;;;;;;;;;;11.27;51.75;93118.88;4796862;29;20050;-88
2022/04/30 00:51:26;;;;;;;12.43;6.07;;;;;;;11.01;50.46;93077.16;4799513;29;19924;-87
2022/04/30 00:54:15;;;;;;;14.00;6.38;;;;;;;11.13;50.72;93096.97;4795874;29;20510;-88
2022/04/30 00:56:59;;;;;;;9.88;5.57;;;;;;;10.97;51.71;93089.22;4796188;29;20039;-88
2022/04/30 00:59:41;;;;;;;11.95;5.22;;;;;;;10.90;52.42;93078.28;4796653;29;20050;-88
2022/04/30 01:02:19;;;;;;;9.35;5.47;;;;;;;10.80;52.50;93067.88;4811737;29;20068;-88
2022/04/30 01:05:16;;;;;;;;;;;;;;;;;;;;;
2022/04/30 01:08:00;;;;;;;;;;;;;;;;;;;;;
2022/04/30 01:10:37;;;;;;;10.95;6.50;;;;;;;10.98;49.91;93101.25;4812875;29;20042;-88
2022/04/30 01:13:21;;;;;;;14.18;5.90;;;;;;;10.77;51.15;93068.44;4812059;29;20049;-88
2022/04/30 01:16:02;;;;;;;9.48;5.80;;;;;;;10.76;51.14;93061.59;4782175;29;20050;-88
2022/04/30 01:18:50;;;;;;;;;;;;;;;;;;;;;
2022/04/30 01:21:33;;;;;;;;;;;;;;;;;;;;;
2022/04/30 01:24:15;;;;;;;;;;;;;;;;;;;;;
2022/04/30 01:27:22;;;;;;;11.80;6.45;;;;;;;10.80;49.57;93080.97;4827572;29;20058;-89
2022/04/30 01:30:18;;;;;;;;;;;;;;;;;;;;;
2022/04/30 01:39:58;;;;;;;12.27;6.20;;;;;;;11.02;49.71;93118.00;4784889;29;20016;-88
2022/04/30 01:46:43;;;;;;;12.88;5.88;;;;;;;10.69;49.22;93072.38;4760914;30;20053;-88
2022/04/30 01:49:25;;;;;;;14.45;6.10;;;;;;;10.77;48.92;93074.44;4793072;29;20069;-88
2022/04/30 01:52:09;;;;;;;14.05;6.55;;;;;;;10.99;48.70;93104.69;4807910;29;20050;-88
2022/04/30 01:55:08;;;;;;;10.45;5.60;;;;;;;10.58;48.63;93044.72;4795416;29;20492;-88
2022/04/30 01:58:03;;;;;;;16.33;6.25;;;;;;;10.71;48.60;93065.03;4806908;29;20142;-88
2022/04/30 02:01:03;;;;;;;;;;;;;;;;;;;;;
2022/04/30 02:03:34;;;;;;;13.77;6.43;;;;;;;10.74;48.56;93066.34;4791762;29;20059;-88
2022/04/30 02:06:23;;;;;;;11.77;6.28;;;;;;;10.67;49.21;93052.78;4781346;29;20042;-88
2022/04/30 02:09:15;;;;;;;14.25;6.20;;;;;;;10.65;49.80;93058.31;4791340;29;20162;-87
2022/04/30 02:11:58;;;;;;;12.63;5.88;;;;;;;10.81;49.96;93079.94;4790690;29;20100;-88
2022/04/30 02:14:48;;;;;;;11.05;6.30;;;;;;;10.70;50.12;93066.13;4778947;29;20058;-89
2022/04/30 02:17:38;;;;;;;9.45;5.75;;;;;;;10.68;50.77;93064.81;4776183;29;20062;-89
2022/04/30 02:20:43;;;;;;;12.25;6.00;;;;;;;10.82;51.61;93081.47;4808562;29;20193;-88
2022/04/30 02:23:23;;;;;;;9.95;5.97;;;;;;;10.64;52.14;93064.56;4791085;29;20047;-89
2022/04/30 02:26:27;;;;;;;;;;;;;;;;;;;;;
2022/04/30 02:30:06;;;;;;;;;;;;;;;10.71;57.66;93083.38;4790578;29;20099;-88
2022/04/30 02:36:33;;;;;;;10.63;5.03;;;;;;;10.53;57.42;93079.56;4807674;29;20139;-88
2022/04/30 02:39:09;;;;;;;11.77;5.80;;;;;;;10.40;57.71;93065.25;4775315;29;20050;-89
2022/04/30 02:41:49;;;;;;;9.20;5.82;;;;;;;10.53;57.88;93079.56;4775922;29;20042;-88
2022/04/30 02:44:32;;;;;;;9.98;5.40;;;;;;;10.18;58.08;93028.97;4763294;29;20050;-88
2022/04/30 02:47:53;;;;;;;;;;;;;;;;;;;;;
2022/04/30 02:50:22;;;;;;;10.05;5.50;;;;;;;10.11;55.20;93025.06;4806898;29;20047;-89
2022/04/30 02:53:18;;;;;;;11.38;5.65;;;;;;;10.30;55.41;93052.22;4790858;29;20119;-87
2022/04/30 02:56:10;;;;;;;8.98;5.30;;;;;;;10.14;55.99;93030.53;4792709;29;20039;-88
2022/04/30 03:02:10;;;;;;;9.80;6.05;;;;;;;10.16;57.88;93033.69;4807610;29;20156;-89
2022/04/30 03:05:05;;;;;;;10.32;5.35;;;;;;;10.25;55.15;93033.13;4794307;29;20057;-88
2022/04/30 03:07:47;;;;;;;;;;;;;;;;;;;;;
2022/04/30 03:10:37;;;;;;;10.10;5.82;;;;;;;10.08;54.40;93015.16;4790917;29;20049;-88
2022/04/30 03:13:14;;;;;;;9.85;6.03;;;;;;;10.03;54.86;93010.72;4776355;29;20047;-89
2022/04/30 03:21:41;;;;;;;11.48;6.10;;;;;;;9.99;55.17;92999.22;4775478;29;20042;-88
2022/04/30 03:22:45;;;;;;;10.00;6.07;;;;;;;10.29;54.72;93036.75;4807216;29;20138;-88
2022/04/30 03:25:16;;;;;;;10.32;6.60;;;;;;;10.29;54.06;93037.56;4792062;29;20531;-89
2022/04/30 03:27:52;;;;;;;12.52;6.25;;;;;;;10.18;54.73;93017.72;4805571;29;20130;-88
2022/04/30 03:30:47;;;;;;;11.43;6.82;;;;;;;10.18;55.26;93021.13;4777461;29;20058;-89
2022/04/30 03:33:22;;;;;;;12.32;6.35;;;;;;;10.28;55.78;93035.19;4810598;29;20049;-88
2022/04/30 03:35:50;;;;;;;12.05;6.30;;;;;;;10.06;55.53;92999.72;4794729;29;20392;-89
2022/04/30 03:38:44;;;;;;;10.68;6.38;;;;;;;10.41;55.24;93056.34;4796794;29;20480;-88
2022/04/30 03:41:39;;;;;;;14.13;6.65;;;;;;;10.02;55.31;92988.25;4779896;29;20461;-89
2022/04/30 03:44:35;;;;;;;10.50;6.18;;;;;;;10.06;55.61;92991.84;4793724;29;20051;-88
2022/04/30 03:47:13;;;;;;;10.77;6.22;;;;;;;10.06;56.67;92997.09;4793700;29;20377;-88
2022/04/30 03:49:49;;;;;;;11.02;5.72;;;;;;;10.30;58.15;93025.25;4779505;29;20047;-89
2022/04/30 03:52:38;;;;;;;10.10;5.40;;;;;;;10.15;58.54;93005.16;4773595;29;20480;-88
2022/04/30 03:55:33;;;;;;;9.20;4.93;;;;;;;10.20;58.49;93018.22;4783016;29;20061;-89
2022/04/30 03:58:12;;;;;;;11.23;5.45;;;;;;;9.98;58.65;92998.44;4795402;29;20514;-88
2022/04/30 04:00:53;;;;;;;10.73;5.68;;;;;;;9.93;58.45;92990.63;4793131;29;20512;-89
2022/04/30 04:03:27;;;;;;;8.70;5.15;;;;;;;9.92;58.37;92994.28;4798802;29;20072;-88
2022/04/30 04:06:20;;;;;;;;;;;;;;;;;;;;;
2022/04/30 04:08:52;;;;;;;13.07;5.82;;;;;;;10.00;58.01;93008.66;4811266;29;20050;-88
2022/04/30 04:11:41;;;;;;;10.02;5.78;;;;;;;10.15;58.32;93026.88;4827628;29;20038;-88
2022/04/30 04:22:55;;;;;;;12.35;5.85;;;;;;;9.69;58.92;92979.25;4798561;29;20069;-88
2022/04/30 04:31:52;;;;;;;9.68;5.75;;;;;;;9.80;59.44;92999.84;4807169;29;20099;-88
2022/04/30 04:34:30;;;;;;;10.93;5.72;;;;;;;10.04;60.09;93029.81;4810956;29;20136;-88
2022/04/30 04:37:31;;;;;;;10.02;5.60;;;;;;;9.73;60.63;92999.34;4792847;29;20133;-88
2022/04/30 04:40:17;;;;;;;9.27;5.53;;;;;;;9.68;61.14;92991.53;4822830;29;20046;-88
2022/04/30 04:42:50;;;;;;;9.43;5.45;;;;;;;10.08;60.62;93052.53;4795923;29;20042;-89
2022/04/30 04:45:29;;;;;;;;;;;;;;;;;;;;;
2022/04/30 04:47:59;;;;;;;12.18;5.55;;;;;;;9.89;60.81;93014.97;4797809;29;20038;-88
2022/04/30 04:50:36;;;;;;;8.45;5.65;;;;;;;9.71;61.00;92993.59;4776591;29;20101;-89
2022/04/30 04:53:03;;;;;;;9.27;5.38;;;;;;;9.61;61.02;92975.34;4796848;29;20038;-88
2022/04/30 04:55:42;;;;;;;12.88;5.72;;;;;;;9.83;60.63;93006.38;4810078;29;20070;-89
2022/04/30 04:58:12;;;;;;;9.73;5.80;;;;;;;9.74;60.05;92992.28;4796802;29;20091;-88
2022/04/30 05:00:48;;;;;;;12.00;5.75;;;;;;;9.67;60.82;92984.72;4796406;29;20046;-88
2022/04/30 05:03:20;;;;;;;12.18;6.25;;;;;;;9.79;60.71;93007.94;4786246;29;20496;-88
2022/04/30 05:06:00;;;;;;;10.38;5.90;;;;;;;10.10;61.27;93044.44;4810454;29;20085;-89
2022/04/30 05:08:44;;;;;;;13.18;5.90;;;;;;;9.84;61.44;92999.28;4801791;29;20110;-88
2022/04/30 05:11:54;;;;;;;9.35;5.90;;;;;;;9.73;62.57;92994.13;4827720;29;20052;-89
2022/04/30 05:14:52;;;;;;;;;;;;;;;;;;;;;
2022/04/30 05:17:31;;;;;;;;;;;;;;;;;;;;;
2022/04/30 05:20:08;;;;;;;13.48;5.90;;;;;;;9.68;62.53;93004.59;4847119;29;20088;-90
2022/04/30 05:22:57;;;;;;;;;;;;;;;;;;;;;
2022/04/30 05:25:46;;;;;;;;;;;;;;;;;;;;;
2022/04/30 05:28:42;;;;;;;10.77;5.95;;;;;;;9.97;63.05;93046.59;4795864;29;20069;-87
2022/04/30 05:31:13;;;;;;;9.47;5.27;;;;;;;9.54;63.69;92995.75;4824147;29;20038;-87
2022/04/30 05:33:51;;;;;;;12.00;5.97;;;;;;;9.97;63.67;93041.38;4784670;29;20038;-88
2022/04/30 05:36:32;;;;;;;11.57;6.00;;;;;;;9.78;62.82;93016.84;4802081;29;20521;-88
2022/04/30 05:39:09;;;;;;;11.15;6.18;;;;;;;9.59;62.40;92993.91;4810417;29;20518;-88
2022/04/30 05:41:52;;;;;;;;;;;;;;;;;;;;;
2022/04/30 05:44:33;;;;;;;10.23;6.00;;;;;;;9.59;62.41;92993.13;4796033;29;20054;-88
2022/04/30 05:47:09;;;;;;;13.43;6.40;;;;;;;9.77;62.51;93015.28;4810087;29;20396;-87
2022/04/30 05:49:52;;;;;;;11.77;6.85;;;;;;;9.84;62.53;93023.63;4809254;29;20133;-87
2022/04/30 05:52:40;;;;;;;;;;;;;;;;;;;;;
2022/04/30 05:55:31;;;;;;;;;;;;;;;;;;;;;
2022/04/30 05:57:57;;;;;;;13.10;6.40;;;;;;;9.94;62.71;93034.03;4794856;29;20053;-90
2022/04/30 06:00:23;;;;;;;10.25;5.75;;;;;;;9.92;63.59;93028.28;4792827;29;20434;-92
2022/04/30 06:02:54;;;;;;;8.73;5.85;;;;;;;9.93;64.77;93029.06;4795367;29;20077;-91
2022/04/30 06:05:41;;;;;;;9.57;5.82;;;;;;;9.87;64.80;93019.69;4822988;29;20030;-91
2022/04/30 06:08:40;;;;;;;9.98;5.65;;;;;;;9.96;66.67;93039.00;4780132;29;20510;-90
2022/04/30 06:11:47;;;;;;;12.55;6.15;;;;;;;9.54;65.97;92980.84;4789755;29;20057;-91
2022/04/30 06:14:22;;;;;;;11.63;7.63;;;;;;;9.84;64.21;93026.25;4809598;29;20050;-92
2022/04/30 06:16:55;;;;;;;13.45;8.07;;;;;;;9.72;62.97;93003.00;4784981;29;20065;-91
2022/04/30 06:19:30;;;;;;;13.68;8.10;;;;;;;9.66;60.73;92993.63;4801398;29;20046;-91
2022/04/30 06:22:23;;;;;;;13.35;8.00;;;;;;;9.82;59.73;93004.81;4805517;29;20054;-91
2022/04/30 06:25:06;;;;;;;15.52;7.25;;;;;;;9.88;64.14;93016.78;4821406;29;20042;-91
2022/04/30 06:27:45;;;;;;;11.52;6.72;;;;;;;9.95;66.89;93035.63;4817347;29;20080;-91
2022/04/30 06:30:55;;;;;;;10.85;6.80;;;;;;;9.57;68.26;93005.69;4777156;29;20488;-93
2022/04/30 06:33:52;;;;;;;12.93;7.45;;;;;;;9.50;68.77;93020.84;4824696;29;20254;-93
2022/04/30 06:36:29;;;;;;;13.20;7.75;;;;;;;9.22;68.80;92988.28;4777103;29;20145;-92
2022/04/30 06:39:30;;;;;;;11.73;6.82;;;;;;;9.65;68.30;93046.94;4799646;29;20056;-93
2022/04/30 06:42:09;;;;;;;13.48;7.50;;;;;;;9.53;69.32;93041.25;4751794;29;20144;-92
2022/04/30 06:44:55;;;;;;;;;;;;;;;;;;;;;
2022/04/30 06:47:50;;;;;;;15.18;7.70;;;;;;;9.42;68.46;92982.22;4810036;29;20034;-91
2022/04/30 06:50:43;;;;;;;11.75;7.10;;;;;;;9.88;67.99;93050.00;4799150;29;20054;-90
2022/04/30 06:59:45;;;;;;;14.43;7.57;;;;;;;9.78;68.92;93007.16;4824927;29;20038;-90
2022/04/30 07:02:33;;;;;;;12.05;8.10;;;;;;;9.79;67.98;93021.81;4814934;29;20046;-89
2022/04/30 07:05:13;;;;;;;13.20;8.60;;;;;;;9.85;68.78;93006.09;4796879;29;20039;-89
2022/04/30 07:08:02;;;;;;;13.45;8.25;;;;;;;9.87;68.46;93030.16;4790625;29;20370;-88
2022/04/30 07:10:41;;;;;;;13.07;7.90;;;;;;;9.84;69.99;93028.06;4792393;29;20038;-88
2022/04/30 07:13:34;;;;;;;11.13;7.70;;;;;;;9.78;70.62;93009.00;4815877;29;20038;-90
2022/04/30 07:16:11;;;;;;;16.98;8.23;;;;;;;9.97;69.67;93035.31;4797233;29;20045;-90
2022/04/30 07:18:50;;;;;;;13.90;7.68;;;;;;;9.95;67.58;93016.50;4806756;29;20041;-89
2022/04/30 07:21:23;;;;;;;13.57;7.38;;;;;;;10.02;65.42;93017.00;4814639;29;20553;-91
2022/04/30 07:24:15;;;;;;;12.50;7.47;;;;;;;10.03;64.74;93012.56;4805709;29;20072;-92
2022/04/30 07:27:04;;;;;;;;;;;;;;;;;;;;;
2022/04/30 07:29:48;;;;;;;16.85;7.18;;;;;;;10.11;63.95;93019.81;4793516;29;20070;-89
2022/04/30 07:32:39;;;;;;;;;;;;;;;;;;;;;
2022/04/30 07:35:09;;;;;;;12.75;7.50;;;;;;;10.28;67.67;93043.81;4812071;29;20042;-89
2022/04/30 07:37:55;;;;;;;20.13;7.93;;;;;;;10.06;69.02;93012.00;4796188;29;20093;-90
2022/04/30 07:40:26;;;;;;;13.02;7.95;;;;;;;10.29;69.67;93068.97;4806677;29;20481;-91
2022/04/30 07:42:54;;;;;;;12.25;7.75;;;;;;;10.06;69.27;93014.63;4808680;29;20103;-89
2022/04/30 07:45:40;;;;;;;11.27;7.30;;;;;;;10.15;70.11;93015.63;4793814;29;20042;-90
2022/04/30 07:48:39;;;;;;;;;;;;;;;;;;;;;
2022/04/30 07:51:33;;;;;;;11.48;7.60;;;;;;;10.02;71.06;93011.78;4806942;29;20026;-90
2022/04/30 07:54:15;;;;;;;13.30;8.20;;;;;;;9.90;72.07;93012.06;4806376;29;20092;-89
2022/04/30 07:57:07;;;;;;;;;;;;;;;;;;;;;
2022/04/30 07:59:46;;;;;;;14.40;7.82;;;;;;;9.93;71.54;93002.91;4821510;29;20047;-91
2022/04/30 08:02:25;;;;;;;10.68;6.97;;;;;;;10.33;69.01;93049.03;4809058;29;20038;-94
2022/04/30 08:05:23;;;;;;;10.90;6.90;;;;;;;10.11;67.64;93006.75;4811372;29;20081;-91
2022/04/30 08:07:49;;;;;;;14.68;6.80;;;;;;;10.16;67.65;92999.66;4809419;29;20070;-92
2022/04/30 08:10:46;;;;;;;11.60;6.78;;;;;;;10.31;67.92;93013.72;4843906;29;20046;-94
2022/04/30 08:13:27;;;;;;;11.80;6.70;;;;;;;10.60;67.98;93042.59;4811511;29;20034;-92
2022/04/30 08:16:13;;;;;;;10.88;6.65;;;;;;;10.58;66.58;93029.81;4796173;29;20514;-92
2022/04/30 08:18:47;;;;;;;13.68;7.50;;;;;;;10.52;68.27;93011.78;4826127;29;20137;-92
2022/04/30 08:21:24;;;;;;;10.93;8.07;;;;;;;10.62;68.53;93009.84;4800473;29;20099;-91
2022/04/30 08:24:03;;;;;;;13.05;7.82;;;;;;;10.41;69.23;93006.59;4801161;29;20577;-91
2022/04/30 08:26:29;;;;;;;13.25;7.90;;;;;;;10.46;70.64;93042.44;4797710;29;20057;-91
2022/04/30 08:29:17;;;;;;;12.32;7.32;;;;;;;10.33;69.58;93056.13;4832909;29;20070;-92
2022/04/30 08:32:10;;;;;;;;;;;;;;;;;;;;;
2022/04/30 08:34:41;;;;;;;13.93;7.95;;;;;;;10.37;70.56;93023.91;4787341;29;20042;-92
2022/04/30 08:37:34;;;;;;;14.02;7.75;;;;;;;10.19;70.33;92999.13;4815141;29;20691;-91
2022/04/30 08:40:36;;;;;;;13.05;7.90;;;;;;;10.54;70.17;93056.81;4820488;29;20129;-92
2022/04/30 08:43:33;;;;;;;14.82;7.72;;;;;;;10.54;70.36;93048.94;4786376;29;20099;-91
2022/04/30 08:46:15;;;;;;;14.55;7.97;;;;;;;10.39;70.45;93039.34;4830921;29;20503;-90
2022/04/30 08:49:21;;;;;;;14.48;8.10;;;;;;;10.21;71.73;92998.84;4849399;29;20071;-93
2022/04/30 08:51:52;;;;;;;12.43;8.38;;;;;;;10.29;73.89;93024.50;4832634;29;20306;-92
2022/04/30 08:54:47;;;;;;;12.32;8.70;;;;;;;10.35;76.73;93051.41;4849434;29;20058;-89
2022/04/30 08:57:14;;;;;;;15.77;8.43;;;;;;;10.11;76.16;93004.94;4850464;29;20097;-91
2022/04/30 08:59:50;;;;;;;;;;;;;;;;;;;;;
2022/04/30 09:02:49;;;;;;;11.20;7.63;;;;;;;10.53;74.52;93026.44;4813143;29;20042;-92
2022/04/30 09:05:43;;;;;;;12.10;7.00;;;;;;;10.69;75.02;93024.47;4798957;29;20046;-91
2022/04/30 09:08:26;;;;;;;12.18;7.60;;;;;;;10.78;75.07;93012.38;4796727;29;20093;-90
2022/04/30 09:11:13;;;;;;;10.25;7.05;;;;;;;10.82;73.44;92992.44;4812721;29;20083;-91
2022/04/30 09:14:02;;;;;;;;;;;;;;;;;;;;;
2022/04/30 09:17:01;;;;;;;;;;;;;;;;;;;;;
2022/04/30 09:19:52;;;;;;;;;;;;;;;;;;;;;
2022/04/30 09:23:02;;;;;;;;;;;;;;;;;;;;;
2022/04/30 09:25:54;;;;;;;7.15;4.60;;;;;;;11.92;52.75;93028.59;4827846;29;20034;-91
2022/04/30 09:28:42;;;;;;;11.23;5.03;;;;;;;12.14;50.74;93031.47;4813819;29;20129;-92
2022/04/30 09:31:39;;;;;;;10.55;5.63;;;;;;;12.06;58.24;92987.50;4797295;29;20050;-92
2022/04/30 09:40:00;;;;;;;10.10;6.38;;;;;;;12.34;57.30;92977.94;4800888;29;20037;-94
2022/04/30 09:42:56;;;;;;;14.15;9.98;;;;;;;12.27;73.19;93022.13;4798924;29;20056;-93
2022/04/30 09:46:14;;;;;;;13.82;9.68;;;;;;;12.14;72.79;93001.84;4793535;29;20039;-90
